createdAt,value
2023-02-07T00:01:23.978Z,18.88
2023-02-07T00:03:51.430Z,19.60
2023-02-07T00:06:40.968Z,17.50
2023-02-07T00:09:10.705Z,18.75
2023-02-07T00:11:40.693Z,19.50
2023-02-07T00:14:10.065Z,16.67
2023-02-07T00:16:37.054Z,16.40
2023-02-07T00:19:04.045Z,21.58
2023-02-07T00:21:31.064Z,18.65
2023-02-07T00:23:58.072Z,20.30
2023-02-07T00:26:27.066Z,23.75
2023-02-07T00:28:55.210Z,22.10
2023-02-07T00:31:29.686Z,11.05
2023-02-07T00:34:00.771Z,20.88
2023-02-07T00:36:29.850Z,14.93
2023-02-07T00:39:02.510Z,19.20
2023-02-07T00:41:30.068Z,21.70
2023-02-07T00:43:57.094Z,16.30
2023-02-07T00:46:24.821Z,18.25
2023-02-07T00:48:54.245Z,19.27
2023-02-07T00:51:21.413Z,15.90
2023-02-07T00:53:48.616Z,18.00
2023-02-07T00:56:15.700Z,15.73
2023-02-07T00:58:42.458Z,18.10
2023-02-07T01:01:09.331Z,15.45
2023-02-07T01:03:36.085Z,16.40
2023-02-07T01:06:02.866Z,17.88
2023-02-07T01:08:29.630Z,17.85
2023-02-07T01:10:57.701Z,16.70
2023-02-07T01:13:24.354Z,15.82
2023-02-07T01:15:51.048Z,14.70
2023-02-07T01:18:17.880Z,18.85
2023-02-07T01:20:45.341Z,17.52
2023-02-07T01:23:13.602Z,17.50
2023-02-07T01:25:41.592Z,21.98
2023-02-07T01:28:08.338Z,21.63
2023-02-07T01:30:35.115Z,14.90
2023-02-07T01:33:02.459Z,20.60
2023-02-07T01:35:29.340Z,13.70
2023-02-07T01:37:58.424Z,17.70
2023-02-07T01:40:27.018Z,20.10
2023-02-07T01:42:53.685Z,18.08
2023-02-07T01:45:36.614Z,17.58
2023-02-07T01:48:11.560Z,16.40
2023-02-07T01:50:41.503Z,16.48
2023-02-07T01:53:10.432Z,17.52
2023-02-07T01:55:41.213Z,17.65
2023-02-07T01:58:08.924Z,18.23
2023-02-07T02:00:36.884Z,21.75
2023-02-07T02:03:04.936Z,21.63
2023-02-07T02:05:33.621Z,19.50
2023-02-07T02:08:00.409Z,17.45
2023-02-07T02:10:52.012Z,13.90
2023-02-07T02:13:28.265Z,19.88
2023-02-07T02:16:07.061Z,20.42
2023-02-07T02:18:45.232Z,20.35
2023-02-07T02:21:44.779Z,16.13
2023-02-07T02:24:15.906Z,16.70
2023-02-07T02:27:06.630Z,17.88
2023-02-07T02:30:19.726Z,17.08
2023-02-07T02:36:10.849Z,14.07
2023-02-07T02:38:51.770Z,17.60
2023-02-07T02:41:23.942Z,13.13
2023-02-07T02:44:03.994Z,16.10
2023-02-07T02:46:37.423Z,13.90
2023-02-07T02:49:07.868Z,20.88
2023-02-07T02:51:34.570Z,16.95
2023-02-07T02:54:01.660Z,18.17
2023-02-07T02:56:57.821Z,16.23
2023-02-07T02:59:52.714Z,15.30
2023-02-07T03:02:22.550Z,17.42
2023-02-07T03:05:14.280Z,15.95
2023-02-07T03:08:25.530Z,17.88
2023-02-07T03:11:07.934Z,16.92
2023-02-07T03:13:56.424Z,18.38
2023-02-07T03:16:29.494Z,16.65
2023-02-07T03:19:24.957Z,20.45
2023-02-07T03:22:13.881Z,18.20
2023-02-07T03:24:51.076Z,19.77
2023-02-07T03:27:21.093Z,15.63
2023-02-07T03:29:57.717Z,20.88
2023-02-07T03:32:29.777Z,16.35
2023-02-07T03:35:07.893Z,20.38
2023-02-07T03:37:51.308Z,18.35
2023-02-07T03:40:18.872Z,15.75
2023-02-07T03:43:32.326Z,11.98
2023-02-07T03:45:59.043Z,17.70
2023-02-07T03:48:25.732Z,20.92
2023-02-07T03:50:53.012Z,16.08
2023-02-07T03:53:20.587Z,10.13
2023-02-07T03:55:47.508Z,15.13
2023-02-07T03:58:14.550Z,19.15
2023-02-07T04:00:41.302Z,13.63
2023-02-07T04:03:08.013Z,13.93
2023-02-07T04:05:34.753Z,19.90
2023-02-07T04:08:01.491Z,16.77
2023-02-07T04:10:28.218Z,16.50
2023-02-07T04:12:54.948Z,15.30
2023-02-07T04:15:21.942Z,15.55
2023-02-07T04:17:48.591Z,14.60
2023-02-07T04:20:15.296Z,13.55
2023-02-07T04:22:41.963Z,13.05
2023-02-07T04:25:08.714Z,13.27
2023-02-07T04:27:35.370Z,16.02
2023-02-07T04:30:02.059Z,16.58
2023-02-07T04:32:28.762Z,18.50
2023-02-07T04:34:55.452Z,15.90
2023-02-07T04:37:22.144Z,18.48
2023-02-07T04:39:48.800Z,16.83
2023-02-07T04:42:15.467Z,14.25
2023-02-07T04:44:42.084Z,12.55
2023-02-07T04:47:08.743Z,14.63
2023-02-07T04:49:35.484Z,19.00
2023-02-07T04:52:02.310Z,17.38
2023-02-07T04:54:28.937Z,17.45
2023-02-07T04:56:55.687Z,19.63
2023-02-07T04:59:22.369Z,15.88
2023-02-07T05:01:49.014Z,24.40
2023-02-07T05:04:15.733Z,18.30
2023-02-07T05:06:42.366Z,18.50
2023-02-07T05:09:08.978Z,21.13
2023-02-07T05:11:35.820Z,21.23
2023-02-07T05:14:02.452Z,20.92
2023-02-07T05:16:29.160Z,16.55
2023-02-07T05:18:55.872Z,22.02
2023-02-07T05:21:22.716Z,20.63
2023-02-07T05:23:50.060Z,17.38
2023-02-07T05:26:17.425Z,18.80
2023-02-07T05:28:44.925Z,11.90
2023-02-07T05:31:11.733Z,22.52
2023-02-07T05:33:38.404Z,18.50
2023-02-07T05:36:05.548Z,15.25
2023-02-07T05:38:32.256Z,15.77
2023-02-07T05:40:58.999Z,17.23
2023-02-07T05:43:25.639Z,19.45
2023-02-07T05:45:52.377Z,22.25
2023-02-07T05:48:19.061Z,16.08
2023-02-07T05:50:45.734Z,17.85
2023-02-07T05:53:13.071Z,19.92
2023-02-07T05:55:40.927Z,20.00
2023-02-07T05:58:07.760Z,16.77
2023-02-07T06:00:34.421Z,16.25
2023-02-07T06:03:01.013Z,18.05
2023-02-07T06:05:31.843Z,20.90
2023-02-07T06:07:58.987Z,16.08
2023-02-07T06:10:25.719Z,13.93
2023-02-07T06:12:52.512Z,13.15
2023-02-07T06:15:19.208Z,14.75
2023-02-07T06:17:45.866Z,17.05
2023-02-07T06:20:12.768Z,8.10
2023-02-07T06:22:39.561Z,21.15
2023-02-07T06:25:10.611Z,13.05
2023-02-07T06:27:39.780Z,19.52
2023-02-07T06:30:08.026Z,17.65
2023-02-07T06:32:34.870Z,18.67
2023-02-07T06:35:01.583Z,18.73
2023-02-07T06:37:28.247Z,20.02
2023-02-07T06:39:54.918Z,16.77
2023-02-07T06:42:21.773Z,18.65
2023-02-07T06:44:48.425Z,18.10
2023-02-07T06:47:16.395Z,18.20
2023-02-07T06:49:43.148Z,18.92
2023-02-07T06:52:09.779Z,17.60
2023-02-07T06:54:36.474Z,15.02
2023-02-07T06:57:03.413Z,18.23
2023-02-07T06:59:30.088Z,17.38
2023-02-07T07:01:56.935Z,18.92
2023-02-07T07:04:23.572Z,18.63
2023-02-07T07:06:50.224Z,15.25
2023-02-07T07:09:16.948Z,19.33
2023-02-07T07:11:44.400Z,17.25
2023-02-07T07:14:11.894Z,20.40
2023-02-07T07:16:40.877Z,20.27
2023-02-07T07:19:07.509Z,21.83
2023-02-07T07:21:34.200Z,15.07
2023-02-07T07:24:00.818Z,15.63
2023-02-07T07:26:36.567Z,19.80
2023-02-07T07:29:09.594Z,12.57
2023-02-07T07:31:36.292Z,20.27
2023-02-07T07:34:02.920Z,17.02
2023-02-07T07:36:29.655Z,18.80
2023-02-07T07:38:56.388Z,19.13
2023-02-07T07:41:23.767Z,19.30
2023-02-07T07:43:50.533Z,20.98
2023-02-07T07:46:17.192Z,17.25
2023-02-07T07:48:43.849Z,11.50
2023-02-07T07:51:10.508Z,11.90
2023-02-07T07:53:37.128Z,9.10
2023-02-07T07:56:04.171Z,11.65
2023-02-07T07:58:31.461Z,11.38
2023-02-07T08:00:58.126Z,12.65
2023-02-07T08:03:24.817Z,16.45
2023-02-07T08:05:51.795Z,14.23
2023-02-07T08:08:19.956Z,14.40
2023-02-07T08:10:47.199Z,12.50
2023-02-07T08:13:13.894Z,11.77
2023-02-07T08:15:40.609Z,12.77
2023-02-07T08:18:07.302Z,16.45
2023-02-07T08:20:35.157Z,17.13
2023-02-07T08:23:02.241Z,10.60
2023-02-07T08:25:29.161Z,10.10
2023-02-07T08:27:55.901Z,18.00
2023-02-07T08:30:22.694Z,17.02
2023-02-07T08:32:51.734Z,15.70
2023-02-07T08:35:18.897Z,13.50
2023-02-07T08:37:45.613Z,18.25
2023-02-07T08:40:13.157Z,15.35
2023-02-07T08:42:40.064Z,13.70
2023-02-07T08:45:07.184Z,15.73
2023-02-07T08:47:33.936Z,12.70
2023-02-07T08:50:00.553Z,12.25
2023-02-07T08:52:28.962Z,11.48
2023-02-07T08:54:56.441Z,13.93
2023-02-07T08:57:24.531Z,18.45
2023-02-07T08:59:52.469Z,11.70
2023-02-07T09:02:19.206Z,12.82
2023-02-07T09:04:45.918Z,10.05
2023-02-07T09:07:12.695Z,12.68
2023-02-07T09:09:40.407Z,13.05
2023-02-07T09:12:08.494Z,10.80
2023-02-07T09:14:35.556Z,15.82
2023-02-07T09:17:02.672Z,18.45
2023-02-07T09:19:29.331Z,12.60
2023-02-07T09:21:55.989Z,14.20
2023-02-07T09:24:22.782Z,13.77
2023-02-07T09:26:49.880Z,11.48
2023-02-07T09:29:17.129Z,13.75
2023-02-07T09:31:44.013Z,15.80
2023-02-07T09:34:10.862Z,15.25
2023-02-07T09:36:37.621Z,14.68
2023-02-07T09:39:05.447Z,15.57
2023-02-07T09:41:42.609Z,14.25
2023-02-07T09:44:25.894Z,14.20
2023-02-07T09:47:02.119Z,13.10
2023-02-07T09:49:47.705Z,12.25
2023-02-07T09:52:29.800Z,12.00
2023-02-07T09:54:58.392Z,13.05
2023-02-07T09:57:28.152Z,11.98
2023-02-07T10:00:20.637Z,13.27
2023-02-07T10:03:21.329Z,13.13
2023-02-07T10:06:01.476Z,13.18
2023-02-07T10:08:39.749Z,13.63
2023-02-07T10:11:35.568Z,18.08
2023-02-07T10:14:27.252Z,16.83
2023-02-07T10:17:35.146Z,13.23
2023-02-07T10:20:26.641Z,11.20
2023-02-07T10:23:02.804Z,14.27
2023-02-07T10:25:38.439Z,15.77
2023-02-07T10:28:14.329Z,12.65
2023-02-07T10:30:49.691Z,14.48
2023-02-07T10:33:24.030Z,17.33
2023-02-07T10:35:52.246Z,11.85
2023-02-07T10:38:38.089Z,13.88
2023-02-07T10:41:13.782Z,10.70
2023-02-07T10:43:43.789Z,11.05
2023-02-07T10:46:13.508Z,12.88
2023-02-07T10:48:40.229Z,14.15
2023-02-07T10:51:29.890Z,14.88
2023-02-07T10:54:11.317Z,16.35
2023-02-07T10:56:50.519Z,13.02
2023-02-07T10:59:45.633Z,17.05
2023-02-07T11:02:31.777Z,14.48
2023-02-07T11:05:01.014Z,10.98
2023-02-07T11:07:32.503Z,14.68
2023-02-07T11:10:21.803Z,17.20
2023-02-07T11:12:53.502Z,12.90
2023-02-07T11:15:26.072Z,18.08
2023-02-07T11:17:56.934Z,13.60
2023-02-07T11:20:39.237Z,18.17
2023-02-07T11:23:11.813Z,12.05
2023-02-07T11:25:44.274Z,9.43
2023-02-07T11:30:56.470Z,14.05
2023-02-07T11:33:27.043Z,12.18
2023-02-07T11:36:18.910Z,9.00
2023-02-07T11:38:55.881Z,14.15
2023-02-07T11:41:30.803Z,11.07
2023-02-07T11:43:57.350Z,11.48
2023-02-07T11:46:46.417Z,11.13
2023-02-07T11:49:37.991Z,13.30
2023-02-07T11:52:05.188Z,13.00
2023-02-07T11:54:32.620Z,14.00
2023-02-07T11:57:14.668Z,10.75
2023-02-07T11:59:49.988Z,14.07
2023-02-07T12:02:24.300Z,12.20
2023-02-07T12:04:52.871Z,9.30
2023-02-07T12:07:27.747Z,14.00
2023-02-07T12:10:01.760Z,13.07
2023-02-07T12:12:43.663Z,13.70
2023-02-07T12:15:25.640Z,13.73
2023-02-07T12:18:36.457Z,13.35
2023-02-07T12:21:22.519Z,13.45
2023-02-07T12:24:00.410Z,12.82
2023-02-07T12:26:32.734Z,13.30
2023-02-07T12:29:17.823Z,12.38
2023-02-07T12:32:07.602Z,15.98
2023-02-07T12:35:12.000Z,12.18
2023-02-07T12:38:06.826Z,14.13
2023-02-07T12:40:38.285Z,13.40
2023-02-07T12:43:38.103Z,14.57
2023-02-07T12:46:38.395Z,10.32
2023-02-07T12:49:22.786Z,9.38
2023-02-07T12:52:18.576Z,10.35
2023-02-07T12:55:01.856Z,12.43
2023-02-07T12:57:37.887Z,11.18
2023-02-07T13:00:28.845Z,11.80
2023-02-07T13:03:26.027Z,13.02
2023-02-07T13:06:31.012Z,11.65
2023-02-07T13:09:23.683Z,11.55
2023-02-07T13:11:58.930Z,10.05
2023-02-07T13:14:35.568Z,13.23
2023-02-07T13:17:14.438Z,11.77
2023-02-07T13:20:11.208Z,11.63
2023-02-07T13:22:50.485Z,12.63
2023-02-07T13:25:23.395Z,12.07
2023-02-07T13:27:54.719Z,10.65
2023-02-07T13:30:22.303Z,12.70
2023-02-07T13:32:50.776Z,12.68
2023-02-07T13:35:25.012Z,11.35
2023-02-07T13:38:18.951Z,9.00
2023-02-07T13:41:06.016Z,9.43
2023-02-07T13:44:01.674Z,8.77
2023-02-07T13:47:11.653Z,11.68
2023-02-07T13:49:53.437Z,8.27
2023-02-07T13:52:34.806Z,9.38
2023-02-07T13:55:20.524Z,8.98
2023-02-07T13:58:05.978Z,10.38
2023-02-07T14:00:53.515Z,9.27
2023-02-07T14:03:22.723Z,10.77
2023-02-07T14:05:49.838Z,8.60
2023-02-07T14:08:16.622Z,8.25
2023-02-07T14:10:47.857Z,11.48
2023-02-07T14:13:26.827Z,6.85
2023-02-07T14:15:56.675Z,7.65
2023-02-07T14:18:44.783Z,7.20
2023-02-07T14:21:21.086Z,10.50
2023-02-07T14:23:53.925Z,7.22
2023-02-07T14:26:36.701Z,9.57
2023-02-07T14:29:24.576Z,7.43
2023-02-07T14:31:55.725Z,7.50
2023-02-07T14:34:28.509Z,10.68
2023-02-07T14:36:55.225Z,9.35
2023-02-07T14:39:29.997Z,9.77
2023-02-07T14:42:11.360Z,8.40
2023-02-07T14:44:41.600Z,10.80
2023-02-07T14:47:19.890Z,10.18
2023-02-07T14:49:50.522Z,7.85
2023-02-07T14:52:24.425Z,8.40
2023-02-07T14:54:56.016Z,6.60
2023-02-07T14:57:43.273Z,8.53
2023-02-07T15:00:12.930Z,8.48
2023-02-07T15:02:43.557Z,9.80
2023-02-07T15:05:13.465Z,9.60
2023-02-07T15:07:40.802Z,9.73
2023-02-07T15:10:14.702Z,11.07
2023-02-07T15:12:45.782Z,9.82
2023-02-07T15:15:25.893Z,9.65
2023-02-07T15:17:55.376Z,10.77
2023-02-07T15:20:34.363Z,10.75
2023-02-07T15:23:04.372Z,8.95
2023-02-07T15:25:32.795Z,9.90
2023-02-07T15:28:01.265Z,9.50
2023-02-07T15:30:28.630Z,7.90
2023-02-07T15:32:55.348Z,10.23
2023-02-07T15:35:36.791Z,10.63
2023-02-07T15:38:16.063Z,8.07
2023-02-07T15:40:42.886Z,8.45
2023-02-07T15:43:29.563Z,7.20
2023-02-07T15:46:09.623Z,8.73
2023-02-07T15:48:55.017Z,8.00
2023-02-07T15:51:26.506Z,11.02
2023-02-07T15:53:57.496Z,10.15
2023-02-07T15:56:25.043Z,9.02
2023-02-07T15:58:53.998Z,9.55
2023-02-07T16:01:26.325Z,7.28
2023-02-07T16:03:56.520Z,13.40
2023-02-07T16:06:26.046Z,10.48
2023-02-07T16:08:55.158Z,9.25
2023-02-07T16:11:27.806Z,9.40
2023-02-07T16:13:54.451Z,7.97
2023-02-07T16:16:26.493Z,7.05
2023-02-07T16:19:08.089Z,9.32
2023-02-07T16:21:36.721Z,9.02
2023-02-07T16:24:13.793Z,8.43
2023-02-07T16:26:40.947Z,8.35
2023-02-07T16:29:08.552Z,8.68
2023-02-07T16:31:35.622Z,8.23
2023-02-07T16:34:02.328Z,9.35
2023-02-07T16:36:29.284Z,9.52
2023-02-07T16:38:55.950Z,9.27
2023-02-07T16:41:32.378Z,6.68
2023-02-07T16:44:06.652Z,7.75
2023-02-07T16:46:34.219Z,8.50
2023-02-07T16:49:01.415Z,7.80
2023-02-07T16:51:28.346Z,9.00
2023-02-07T16:53:55.053Z,8.80
2023-02-07T16:56:26.499Z,8.30
2023-02-07T16:58:53.307Z,6.28
2023-02-07T17:01:21.624Z,7.32
2023-02-07T17:03:48.784Z,6.38
2023-02-07T17:06:20.570Z,7.53
2023-02-07T17:08:48.386Z,8.70
2023-02-07T17:11:20.726Z,9.50
2023-02-07T17:13:47.535Z,9.20
2023-02-07T17:16:14.294Z,8.27
2023-02-07T17:18:41.230Z,10.75
2023-02-07T17:21:13.672Z,8.20
2023-02-07T17:26:25.164Z,7.72
2023-02-07T17:28:52.692Z,8.02
2023-02-07T17:31:19.522Z,7.75
2023-02-07T17:33:46.212Z,8.45
2023-02-07T17:36:14.523Z,8.32
2023-02-07T17:38:42.572Z,9.32
2023-02-07T17:41:11.700Z,7.97
2023-02-07T17:43:41.216Z,8.52
2023-02-07T17:46:20.161Z,8.75
2023-02-07T17:48:49.143Z,9.32
2023-02-07T17:51:17.051Z,9.43
2023-02-07T17:53:44.551Z,7.35
2023-02-07T17:56:30.767Z,8.48
2023-02-07T17:59:02.920Z,8.73
2023-02-07T18:01:33.926Z,9.27
2023-02-07T18:04:02.461Z,8.68
2023-02-07T18:06:30.387Z,8.35
2023-02-07T18:09:00.989Z,8.70
2023-02-07T18:11:28.173Z,9.13
2023-02-07T18:13:57.136Z,9.00
2023-02-07T18:16:26.338Z,10.90
2023-02-07T18:18:55.923Z,13.20
2023-02-07T18:21:22.696Z,10.48
2023-02-07T18:23:49.661Z,24.75
2023-02-07T18:26:16.700Z,15.90
2023-02-07T18:28:43.915Z,11.30
2023-02-07T18:31:12.353Z,10.85
2023-02-07T18:33:39.151Z,10.45
2023-02-07T18:36:06.633Z,11.63
2023-02-07T18:38:33.309Z,9.50
2023-02-07T18:40:59.896Z,7.93
2023-02-07T18:43:26.582Z,9.55
2023-02-07T18:45:53.265Z,8.30
2023-02-07T18:48:19.933Z,9.38
2023-02-07T18:50:48.147Z,9.38
2023-02-07T18:53:14.861Z,9.57
2023-02-07T18:55:42.416Z,13.38
2023-02-07T18:58:09.158Z,10.23
2023-02-07T19:00:35.761Z,9.45
2023-02-07T19:03:02.414Z,11.35
2023-02-07T19:05:29.097Z,9.52
2023-02-07T19:07:56.279Z,12.75
2023-02-07T19:10:22.970Z,10.90
2023-02-07T19:12:49.591Z,11.52
2023-02-07T19:15:16.367Z,10.43
2023-02-07T19:17:43.053Z,10.00
2023-02-07T19:20:10.177Z,9.25
2023-02-07T19:22:37.658Z,10.40
2023-02-07T19:25:05.718Z,9.75
2023-02-07T19:27:32.613Z,10.35
2023-02-07T19:29:59.547Z,10.52
2023-02-07T19:32:26.253Z,12.75
2023-02-07T19:34:52.969Z,8.60
2023-02-07T19:37:19.666Z,9.43
2023-02-07T19:39:46.536Z,9.55
2023-02-07T19:42:13.361Z,9.63
2023-02-07T19:44:39.989Z,11.30
2023-02-07T19:47:06.729Z,10.02
2023-02-07T19:49:33.436Z,9.80
2023-02-07T19:52:00.151Z,9.00
2023-02-07T19:54:26.762Z,9.20
2023-02-07T19:56:53.382Z,8.00
2023-02-07T19:59:20.062Z,9.02
2023-02-07T20:01:46.745Z,10.18
2023-02-07T20:04:13.565Z,8.10
2023-02-07T20:06:40.412Z,7.82
2023-02-07T20:09:07.914Z,8.18
2023-02-07T20:11:35.210Z,11.48
2023-02-07T20:14:06.921Z,9.30
2023-02-07T20:16:36.758Z,6.93
2023-02-07T20:19:06.714Z,8.65
2023-02-07T20:21:35.736Z,7.68
2023-02-07T20:24:02.628Z,8.02
2023-02-07T20:26:32.337Z,10.00
2023-02-07T20:29:00.871Z,7.53
2023-02-07T20:31:29.205Z,8.02
2023-02-07T20:33:57.621Z,8.98
2023-02-07T20:36:25.783Z,8.32
2023-02-07T20:38:53.180Z,9.48
2023-02-07T20:41:29.280Z,6.45
2023-02-07T20:44:05.237Z,8.25
2023-02-07T20:46:34.309Z,7.35
2023-02-07T20:49:03.593Z,6.97
2023-02-07T20:51:30.770Z,10.02
2023-02-07T20:53:59.290Z,8.32
2023-02-07T20:56:27.301Z,6.57
2023-02-07T20:58:58.078Z,7.63
2023-02-07T21:01:27.372Z,6.13
2023-02-07T21:03:56.243Z,6.93
2023-02-07T21:06:24.122Z,6.65
2023-02-07T21:08:55.344Z,7.53
2023-02-07T21:11:22.158Z,7.72
2023-02-07T21:13:53.680Z,6.78
2023-02-07T21:16:21.226Z,8.32
2023-02-07T21:18:48.370Z,8.98
2023-02-07T21:21:15.918Z,8.68
2023-02-07T21:23:42.813Z,6.75
2023-02-07T21:26:13.825Z,8.13
2023-02-07T21:28:40.923Z,8.23
2023-02-07T21:31:14.677Z,7.38
2023-02-07T21:33:41.393Z,7.70
2023-02-07T21:36:11.093Z,7.65
2023-02-07T21:38:39.612Z,6.32
2023-02-07T21:41:08.633Z,7.28
2023-02-07T21:43:36.095Z,8.15
2023-02-07T21:46:09.049Z,8.32
2023-02-07T21:48:37.075Z,7.95
2023-02-07T21:51:13.769Z,6.28
2023-02-07T21:53:40.603Z,8.75
2023-02-07T21:56:11.503Z,7.90
2023-02-07T21:58:38.891Z,7.93
2023-02-07T22:01:08.297Z,7.40
2023-02-07T22:03:36.726Z,6.32
2023-02-07T22:06:05.000Z,7.85
2023-02-07T22:08:32.410Z,7.25
2023-02-07T22:11:05.918Z,10.90
2023-02-07T22:13:33.454Z,6.03
2023-02-07T22:16:00.475Z,6.65
2023-02-07T22:18:27.503Z,8.10
2023-02-07T22:20:54.368Z,5.60
2023-02-07T22:23:21.141Z,7.18
2023-02-07T22:25:47.745Z,7.07
2023-02-07T22:28:14.492Z,6.47
2023-02-07T22:30:41.594Z,6.00
2023-02-07T22:33:10.006Z,8.43
2023-02-07T22:35:38.450Z,7.40
2023-02-07T22:38:05.335Z,6.25
2023-02-07T22:40:36.553Z,9.00
2023-02-07T22:43:06.316Z,6.75
2023-02-07T22:45:35.859Z,8.82
2023-02-07T22:48:03.460Z,7.10
2023-02-07T22:50:30.062Z,7.78
2023-02-07T22:52:57.460Z,8.05
2023-02-07T22:55:24.160Z,7.32
2023-02-07T22:57:51.691Z,8.35
2023-02-07T23:00:19.912Z,6.57
2023-02-07T23:02:46.775Z,11.10
2023-02-07T23:05:13.464Z,7.97
2023-02-07T23:07:40.383Z,7.68
2023-02-07T23:10:08.446Z,7.47
2023-02-07T23:12:35.324Z,8.32
2023-02-07T23:15:02.830Z,6.85
2023-02-07T23:17:29.502Z,6.63
2023-02-07T23:19:56.647Z,9.10
2023-02-07T23:22:23.414Z,8.35
2023-02-07T23:24:50.409Z,9.95
2023-02-07T23:27:17.169Z,9.63
2023-02-07T23:29:44.091Z,8.02
2023-02-07T23:32:10.706Z,11.25
2023-02-07T23:34:37.302Z,6.65
2023-02-07T23:37:04.130Z,8.60
2023-02-07T23:39:31.109Z,10.75
2023-02-07T23:41:58.391Z,9.20
2023-02-07T23:44:25.290Z,8.80
2023-02-07T23:46:52.421Z,9.98
2023-02-07T23:49:19.277Z,9.07
2023-02-07T23:51:45.904Z,8.18
2023-02-07T23:54:13.167Z,10.35
2023-02-07T23:56:39.860Z,8.93
2023-02-07T23:59:06.885Z,9.43
